Time;durP1;ratioP1;P1;durP2;ratioP2;P2;SDS_P1;SDS_P2;PMS_P1;PMS_P2;Temp;Humidity;BMP_temperature;BMP_pressure;BME280_temperature;BME280_humidity;BME280_pressure;Samples;Min_cycle;Max_cycle;Signal;HPM_P1;HPM_P2
2022/11/05 00:16:42;;;;;;;7.38;4.20;;;;;;;10.43;62.45;99584.34;5014349;28;20108;-62
2022/11/05 00:16:51;;;;;;;10.30;4.47;;;;;;;10.41;62.54;99573.94;5013814;28;20457;-62
2022/11/05 00:19:17;;;;;;;10.23;4.53;;;;;;;10.41;62.82;99573.06;5014155;28;20077;-61
2022/11/05 00:27:13;;;;;;;12.32;4.45;;;;;;;10.38;62.79;99576.75;5013937;28;20639;-60
2022/11/05 00:29:39;;;;;;;6.88;3.83;;;;;;;10.40;62.82;99584.53;5014193;28;20105;-62
2022/11/05 00:32:06;;;;;;;9.15;3.70;;;;;;;10.39;62.81;99588.13;4996347;28;20052;-60
2022/11/05 00:34:32;;;;;;;4.65;2.92;;;;;;;10.40;62.64;99589.81;5013422;28;20493;-60
2022/11/05 00:36:59;;;;;;;8.07;3.53;;;;;;;10.40;62.75;99592.44;5013590;28;20517;-60
2022/11/05 00:39:25;;;;;;;8.23;3.30;;;;;;;10.40;62.46;99598.53;5013709;28;20512;-61
2022/11/05 00:50:06;;;;;;;9.00;3.63;;;;;;;10.38;62.71;99617.97;5013664;28;20121;-60
2022/11/05 00:55:17;;;;;;;7.10;4.10;;;;;;;10.36;62.81;99622.50;5013330;28;20124;-61
2022/11/05 00:57:43;;;;;;;11.00;4.60;;;;;;;10.34;62.93;99625.22;5013242;28;20470;-60
2022/11/05 01:00:10;;;;;;;11.38;4.53;;;;;;;10.33;62.75;99618.25;5013635;28;20155;-60
2022/11/05 01:02:37;;;;;;;8.35;4.90;;;;;;;10.33;63.11;99630.56;4996108;28;20109;-59
2022/11/05 01:05:03;;;;;;;9.35;4.43;;;;;;;10.30;63.27;99631.59;5013026;28;20050;-62
2022/11/05 01:07:30;;;;;;;7.05;5.03;;;;;;;10.28;62.95;99625.59;5013270;28;20494;-60
2022/11/05 01:09:56;;;;;;;7.00;4.47;;;;;;;10.26;63.15;99630.06;5013004;28;20112;-60
2022/11/05 01:12:22;;;;;;;10.23;4.53;;;;;;;10.26;63.45;99630.94;5013063;28;20148;-60
2022/11/05 01:14:49;;;;;;;12.98;5.03;;;;;;;10.24;63.49;99630.16;5013011;28;20148;-60
2022/11/05 01:17:15;;;;;;;9.30;4.22;;;;;;;10.24;63.45;99639.84;5012973;28;20484;-61
2022/11/05 01:19:42;;;;;;;8.45;4.00;;;;;;;10.23;63.51;99638.13;5012834;28;20073;-61
2022/11/05 01:22:08;;;;;;;13.82;4.93;;;;;;;10.22;63.62;99637.31;5012868;28;20054;-60
2022/11/05 01:24:34;;;;;;;7.75;4.28;;;;;;;10.23;63.87;99641.63;5013085;28;20128;-56
2022/11/05 01:27:01;;;;;;;10.05;4.85;;;;;;;10.23;63.47;99639.00;5012578;28;20085;-60
2022/11/05 01:29:27;;;;;;;5.65;4.15;;;;;;;10.22;63.46;99645.19;5013090;28;20509;-60
2022/11/05 01:31:53;;;;;;;8.25;4.35;;;;;;;10.22;63.56;99639.94;5012859;28;20058;-59
2022/11/05 01:34:20;;;;;;;12.95;4.85;;;;;;;10.21;63.56;99645.28;5012874;28;20054;-59
2022/11/05 01:36:46;;;;;;;8.95;4.38;;;;;;;10.20;63.41;99636.53;5012307;28;20089;-58
2022/11/05 01:39:12;;;;;;;6.70;4.35;;;;;;;10.20;63.61;99646.22;5012616;28;20077;-60
2022/11/05 01:41:39;;;;;;;9.55;4.30;;;;;;;10.18;63.42;99641.03;5012418;28;20184;-60
2022/11/05 01:44:45;;;;;;;9.23;4.43;;;;;;;10.14;64.82;99644.78;5012208;28;20081;-60
2022/11/05 01:47:35;;;;;;;8.68;4.53;;;;;;;10.14;64.53;99642.16;4994864;28;20050;-60
2022/11/05 01:50:20;;;;;;;5.68;3.70;;;;;;;10.15;63.79;99647.34;4995335;28;20057;-57
2022/11/05 01:52:51;;;;;;;8.63;4.00;;;;;;;10.16;63.60;99648.16;5012500;28;20057;-59
2022/11/05 01:55:22;;;;;;;9.23;4.53;;;;;;;10.14;63.81;99639.53;5012508;28;20058;-59
2022/11/05 01:57:52;;;;;;;7.45;3.80;;;;;;;10.13;63.59;99649.19;5012234;28;20113;-60
2022/11/05 02:00:19;;;;;;;10.57;4.55;;;;;;;10.12;63.28;99650.13;5012269;28;20058;-57
2022/11/05 02:02:46;;;;;;;11.15;4.80;;;;;;;10.12;63.44;99654.53;5012240;28;20104;-58
2022/11/05 02:05:13;;;;;;;9.18;4.32;;;;;;;10.11;63.65;99656.31;5012292;28;20112;-62
2022/11/05 02:07:43;;;;;;;11.35;4.55;;;;;;;10.08;63.94;99651.22;4994397;28;20081;-58
2022/11/05 02:10:12;;;;;;;9.13;4.22;;;;;;;10.07;63.81;99657.44;5012225;28;20450;-60
2022/11/05 02:12:42;;;;;;;10.82;4.80;;;;;;;10.06;63.92;99657.53;5011669;28;20101;-60
2022/11/05 02:15:14;;;;;;;7.57;4.22;;;;;;;10.04;64.19;99655.81;5012270;28;20104;-59
2022/11/05 02:17:52;;;;;;;9.65;4.07;;;;;;;10.04;64.33;99657.59;5011837;28;20223;-60
2022/11/05 02:20:48;;;;;;;7.72;4.60;;;;;;;10.02;64.48;99667.38;5012099;28;20145;-59
2022/11/05 02:23:32;;;;;;;9.80;3.90;;;;;;;10.04;64.38;99665.50;5004525;28;20103;-60
2022/11/05 02:26:17;;;;;;;10.15;3.92;;;;;;;10.04;64.21;99662.84;5011889;28;20556;-57
2022/11/05 02:29:08;;;;;;;8.18;4.15;;;;;;;10.03;64.20;99675.16;4994360;28;20081;-60
2022/11/05 02:32:19;;;;;;;8.65;4.18;;;;;;;10.00;64.25;99677.13;5011845;28;20053;-59
2022/11/05 02:34:58;;;;;;;7.35;3.90;;;;;;;9.99;64.23;99683.31;5004731;28;20518;-59
2022/11/05 02:37:44;;;;;;;11.18;4.38;;;;;;;9.99;63.96;99680.69;5011771;28;20050;-60
2022/11/05 02:40:26;;;;;;;10.60;4.53;;;;;;;9.94;64.27;99683.56;5011590;28;20050;-60
2022/11/05 02:43:14;;;;;;;7.47;4.07;;;;;;;9.94;64.22;99680.94;5011561;28;20529;-61
2022/11/05 02:46:01;;;;;;;6.85;4.00;;;;;;;9.90;64.59;99682.03;5011492;28;20061;-60
2022/11/05 02:48:54;;;;;;;7.55;4.38;;;;;;;9.88;64.42;99684.75;5011811;28;20111;-60
2022/11/05 02:51:31;;;;;;;11.20;4.30;;;;;;;9.89;64.04;99677.72;5011608;28;20146;-60
2022/11/05 02:54:04;;;;;;;6.93;4.35;;;;;;;9.86;64.04;99693.66;4994075;28;20108;-58
2022/11/05 02:56:38;;;;;;;9.30;4.55;;;;;;;9.83;64.42;99689.41;5011059;28;20050;-58
2022/11/05 02:59:04;;;;;;;11.82;5.03;;;;;;;9.84;63.56;99688.50;4994317;28;20160;-57
2022/11/05 03:01:31;;;;;;;8.50;4.90;;;;;;;9.83;63.42;99689.41;5011329;28;20054;-58
2022/11/05 03:04:02;;;;;;;9.20;5.05;;;;;;;9.80;63.79;99686.97;5011282;28;20490;-60
2022/11/05 03:06:53;;;;;;;8.00;4.88;;;;;;;9.76;64.39;99678.38;5011178;28;20124;-60
2022/11/05 03:09:47;;;;;;;7.03;4.35;;;;;;;9.73;64.38;99683.84;5011414;28;20664;-56
2022/11/05 03:12:25;;;;;;;7.60;4.32;;;;;;;9.70;64.42;99681.34;5011293;28;20046;-60
2022/11/05 03:15:04;;;;;;;7.60;4.50;;;;;;;9.70;64.06;99675.25;4993838;28;20104;-62
2022/11/05 03:17:56;;;;;;;6.43;4.32;;;;;;;9.67;64.60;99681.53;5011473;28;20085;-61
2022/11/05 03:21:01;;;;;;;8.63;4.33;;;;;;;9.65;64.51;99673.72;5011459;28;20057;-59
2022/11/05 03:23:37;;;;;;;10.52;5.10;;;;;;;9.65;64.12;99667.63;4950372;29;20050;-59
2022/11/05 03:26:11;;;;;;;6.88;4.30;;;;;;;9.63;63.83;99667.72;5002584;28;20108;-59
2022/11/05 03:28:41;;;;;;;10.00;4.80;;;;;;;9.62;64.01;99671.28;4966066;23;20111;-61
2022/11/05 03:31:11;;;;;;;6.05;3.80;;;;;;;9.61;63.85;99681.88;5052962;28;20052;-61
2022/11/05 03:33:40;;;;;;;8.82;4.82;;;;;;;9.60;63.78;99677.53;5053034;28;20679;-61
2022/11/05 03:36:12;;;;;;;9.18;3.90;;;;;;;9.58;64.08;99684.66;5070758;28;20056;-59
2022/11/05 03:38:45;;;;;;;7.45;3.72;;;;;;;9.58;64.10;99684.66;5070241;28;20695;-60
2022/11/05 03:41:14;;;;;;;9.77;3.92;;;;;;;9.56;63.67;99687.34;5070890;28;20118;-60
2022/11/05 03:43:46;;;;;;;7.10;3.58;;;;;;;9.55;63.98;99679.56;5070425;28;20044;-60
2022/11/05 03:46:21;;;;;;;8.27;3.80;;;;;;;9.52;64.53;99684.06;5070634;28;20044;-60
2022/11/05 03:48:52;;;;;;;5.80;3.30;;;;;;;9.55;63.81;99682.19;5070129;28;20052;-60
2022/11/05 03:51:27;;;;;;;9.20;4.00;;;;;;;9.54;64.25;99683.13;5070586;28;20084;-60
2022/11/05 03:53:59;;;;;;;7.50;3.45;;;;;;;9.54;64.34;99683.13;5070430;28;20049;-59
2022/11/05 03:56:36;;;;;;;7.57;3.37;;;;;;;9.54;64.23;99677.88;5052628;28;20056;-58
2022/11/05 03:59:05;;;;;;;7.47;3.80;;;;;;;9.56;63.61;99678.63;5052503;28;20114;-62
2022/11/05 04:01:32;;;;;;;7.13;3.38;;;;;;;9.56;63.45;99681.25;5052889;28;20047;-60
2022/11/05 04:03:59;;;;;;;7.03;3.63;;;;;;;9.55;63.55;99680.41;5070240;28;20052;-61
2022/11/05 04:14:40;;;;;;;10.88;4.05;;;;;;;9.50;63.53;99690.34;5073629;28;20159;-64
2022/11/05 04:17:09;;;;;;;8.02;4.07;;;;;;;9.48;63.50;99684.28;5073836;28;20080;-60
2022/11/05 04:25:13;;;;;;;6.88;3.05;;;;;;;9.45;63.65;99695.81;5073285;28;20056;-58
2022/11/05 04:27:39;;;;;;;7.35;3.25;;;;;;;9.46;63.63;99704.56;5055875;28;20106;-55
2022/11/05 04:30:19;;;;;;;7.15;3.40;;;;;;;9.45;63.76;99711.59;5073586;28;20075;-62
2022/11/05 04:33:05;;;;;;;5.13;2.92;;;;;;;9.42;64.33;99705.66;5056287;28;20044;-54
2022/11/05 04:35:45;;;;;;;7.00;3.10;;;;;;;9.44;64.12;99704.63;5073307;28;20075;-60
2022/11/05 04:38:17;;;;;;;5.20;3.17;;;;;;;9.46;63.98;99707.19;5073430;28;20052;-59
2022/11/05 04:40:45;;;;;;;5.57;3.15;;;;;;;9.48;63.93;99706.19;5055557;28;20060;-60
2022/11/05 04:43:13;;;;;;;7.88;4.63;;;;;;;9.47;63.68;99709.75;5073283;28;20476;-60
2022/11/05 04:45:41;;;;;;;7.70;4.30;;;;;;;9.48;63.55;99710.56;5073287;28;20052;-59
2022/11/05 04:48:08;;;;;;;7.32;3.95;;;;;;;9.47;63.44;99714.13;5055592;28;20078;-60
2022/11/05 04:50:35;;;;;;;8.48;4.60;;;;;;;9.46;63.20;99715.91;5055269;28;20140;-56
2022/11/05 04:53:01;;;;;;;8.48;5.00;;;;;;;9.45;63.47;99716.84;5072949;28;20063;-60
2022/11/05 04:55:28;;;;;;;6.78;4.75;;;;;;;9.42;63.47;99716.16;5073062;28;20051;-60
2022/11/05 04:57:55;;;;;;;8.13;4.80;;;;;;;9.38;63.08;99716.31;5072734;28;20403;-60
2022/11/05 05:00:22;;;;;;;8.02;4.95;;;;;;;9.35;63.26;99719.09;5073064;28;20493;-62
2022/11/05 05:02:49;;;;;;;7.57;4.97;;;;;;;9.30;63.21;99715.88;5055110;28;20492;-61
2022/11/05 05:05:16;;;;;;;8.35;4.55;;;;;;;9.27;63.48;99715.19;5073078;28;20052;-61
2022/11/05 05:07:43;;;;;;;9.05;5.00;;;;;;;9.24;63.46;99722.28;5072513;28;20052;-60
2022/11/05 05:10:10;;;;;;;9.15;4.82;;;;;;;9.22;63.54;99732.03;5072818;28;20040;-60
2022/11/05 05:12:36;;;;;;;7.35;4.72;;;;;;;9.20;63.63;99725.16;5072832;28;20131;-60
2022/11/05 05:15:03;;;;;;;5.07;3.70;;;;;;;9.18;63.63;99713.88;5072643;28;20050;-58
2022/11/05 05:17:30;;;;;;;7.85;4.40;;;;;;;9.17;63.70;99712.19;5072336;28;20049;-59
2022/11/05 05:22:42;;;;;;;6.20;4.30;;;;;;;9.16;63.79;99723.63;5072468;28;20127;-59
2022/11/05 05:25:08;;;;;;;8.68;4.35;;;;;;;9.15;63.66;99721.94;5072342;28;20048;-59
2022/11/05 05:27:35;;;;;;;7.35;5.30;;;;;;;9.15;63.61;99720.13;5072507;28;20078;-62
2022/11/05 05:30:02;;;;;;;7.10;4.65;;;;;;;9.14;63.24;99726.31;5072152;28;20519;-60
2022/11/05 05:32:28;;;;;;;7.93;5.18;;;;;;;9.12;63.38;99730.78;5072537;28;20056;-60
2022/11/05 05:34:55;;;;;;;7.50;4.75;;;;;;;9.09;63.59;99731.81;5071882;28;20056;-60
2022/11/05 05:37:22;;;;;;;9.30;5.18;;;;;;;9.07;63.34;99738.06;5068434;28;20081;-60
2022/11/05 05:39:48;;;;;;;7.43;5.32;;;;;;;9.05;63.25;99734.69;5071891;28;20098;-61
2022/11/05 05:42:15;;;;;;;7.78;5.05;;;;;;;9.01;63.19;99743.63;5063974;28;20044;-60
2022/11/05 05:44:41;;;;;;;6.45;4.50;;;;;;;8.96;63.50;99739.47;5071989;28;20048;-59
2022/11/05 05:47:08;;;;;;;7.82;4.63;;;;;;;8.94;63.27;99745.72;5072030;28;20520;-61
2022/11/05 05:49:34;;;;;;;7.95;5.47;;;;;;;8.92;63.28;99739.69;5069443;28;20496;-61
2022/11/05 05:52:01;;;;;;;9.63;5.90;;;;;;;8.90;63.18;99749.44;5066728;28;20096;-60
2022/11/05 05:54:28;;;;;;;9.95;6.25;;;;;;;8.86;63.46;99757.44;5061145;28;20057;-60
2022/11/05 05:56:59;;;;;;;10.13;5.50;;;;;;;8.83;63.42;99764.63;5059940;28;20084;-60
2022/11/05 05:59:26;;;;;;;10.43;6.00;;;;;;;8.78;63.55;99764.84;5051506;28;20048;-60
2022/11/05 06:01:52;;;;;;;9.88;7.35;;;;;;;8.73;63.84;99775.59;5051540;28;20679;-58
2022/11/05 06:04:19;;;;;;;9.60;6.95;;;;;;;8.67;63.72;99768.00;5034036;28;20057;-60
2022/11/05 06:06:46;;;;;;;39.47;9.40;;;;;;;8.62;63.58;99779.66;5051514;28;20099;-58
2022/11/05 06:09:13;;;;;;;68.78;9.77;;;;;;;8.52;63.57;99780.06;5051848;28;20044;-60
2022/11/05 06:11:40;;;;;;;81.38;9.80;;;;;;;8.45;63.53;99779.50;5033853;28;20061;-60
2022/11/05 06:14:11;;;;;;;110.38;9.52;;;;;;;8.33;64.27;99791.44;5034046;28;20058;-61
2022/11/05 06:16:38;;;;;;;66.07;9.13;;;;;;;8.26;63.90;99789.19;5033330;28;20094;-62
2022/11/05 06:19:06;;;;;;;85.70;9.90;;;;;;;8.16;63.58;99789.63;5033991;28;20110;-60
2022/11/05 06:21:32;;;;;;;123.15;10.90;;;;;;;8.07;64.17;99800.50;5051612;28;20052;-60
2022/11/05 06:24:01;;;;;;;115.72;9.68;;;;;;;8.00;64.29;99793.88;5051352;28;20053;-60
2022/11/05 06:26:28;;;;;;;223.43;13.73;;;;;;;7.91;64.14;99801.22;5051104;28;20051;-60
2022/11/05 06:28:54;;;;;;;84.68;7.55;;;;;;;7.84;64.80;99794.56;5051418;28;20088;-61
2022/11/05 06:31:21;;;;;;;62.70;8.13;;;;;;;7.79;64.53;99791.28;5050646;28;20507;-60
2022/11/05 06:33:48;;;;;;;202.13;15.27;;;;;;;7.74;64.82;99793.28;5051340;28;20516;-59
2022/11/05 06:36:16;;;;;;;94.85;9.48;;;;;;;7.68;65.22;99800.50;5033294;28;20053;-60
2022/11/05 06:38:43;;;;;;;76.60;9.73;;;;;;;7.65;64.83;99798.00;5033528;28;20182;-61
2022/11/05 06:41:09;;;;;;;86.63;10.05;;;;;;;7.61;65.29;99803.44;5051066;28;20051;-60
2022/11/05 06:43:36;;;;;;;98.22;10.25;;;;;;;7.56;65.30;99801.03;5050936;28;20053;-61
2022/11/05 06:46:03;;;;;;;84.03;8.63;;;;;;;7.53;65.32;99809.00;5051028;28;20045;-60
2022/11/05 06:48:30;;;;;;;119.90;10.38;;;;;;;7.49;65.47;99810.06;5033221;28;20052;-63
2022/11/05 06:50:57;;;;;;;88.35;9.48;;;;;;;7.47;65.41;99817.16;5051281;28;20051;-60
2022/11/05 06:53:24;;;;;;;137.85;10.38;;;;;;;7.44;65.66;99823.34;5051028;28;20053;-61
2022/11/05 06:55:51;;;;;;;129.93;9.88;;;;;;;7.40;65.55;99814.78;5050982;28;20194;-60
2022/11/05 06:58:17;;;;;;;127.78;10.07;;;;;;;7.37;65.47;99816.69;5050601;28;20048;-60
2022/11/05 07:00:44;;;;;;;73.85;8.40;;;;;;;7.33;65.83;99820.34;5051223;28;20052;-62
2022/11/05 07:03:11;;;;;;;97.72;10.48;;;;;;;7.30;65.99;99823.94;5033015;28;20409;-60
2022/11/05 07:05:45;;;;;;;119.45;10.57;;;;;;;7.27;66.49;99840.66;5050667;28;20102;-61
2022/11/05 07:08:11;;;;;;;50.78;9.43;;;;;;;7.25;65.97;99839.84;5033008;28;20135;-60
2022/11/05 07:10:38;;;;;;;90.45;10.02;;;;;;;7.25;66.31;99839.00;5050883;28;20048;-60
2022/11/05 07:13:05;;;;;;;109.05;11.13;;;;;;;7.25;66.15;99849.47;5050739;28;20111;-60
2022/11/05 07:15:35;;;;;;;124.90;11.82;;;;;;;7.26;66.31;99845.94;5051045;28;20048;-60
2022/11/05 07:18:03;;;;;;;139.20;12.07;;;;;;;7.25;66.55;99839.00;5050561;28;20045;-59
2022/11/05 07:20:29;;;;;;;219.02;16.23;;;;;;;7.25;66.64;99842.47;5050859;28;20078;-60
2022/11/05 07:23:01;;;;;;;111.93;10.45;;;;;;;7.26;66.63;99840.72;5050860;28;20049;-61
2022/11/05 07:25:28;;;;;;;152.38;12.85;;;;;;;7.26;67.27;99846.78;5032614;28;20501;-60
2022/11/05 07:27:55;;;;;;;76.32;9.90;;;;;;;7.28;67.07;99844.09;5050606;28;20045;-62
2022/11/05 07:30:21;;;;;;;114.65;10.23;;;;;;;7.29;67.04;99851.91;5050859;28;20080;-61
2022/11/05 07:32:48;;;;;;;163.70;12.30;;;;;;;7.30;67.42;99844.91;5050870;28;20045;-61
2022/11/05 07:35:15;;;;;;;185.23;12.80;;;;;;;7.32;67.33;99847.47;5050403;28;20060;-58
2022/11/05 07:37:46;;;;;;;180.90;13.07;;;;;;;7.33;67.04;99857.00;5050848;28;20079;-58
2022/11/05 07:40:14;;;;;;;145.13;11.93;;;;;;;7.34;67.13;99846.47;5050374;28;20136;-55
2022/11/05 07:42:46;;;;;;;96.35;12.38;;;;;;;7.35;67.87;99850.78;5033521;28;20076;-58
2022/11/05 07:45:12;;;;;;;105.97;11.20;;;;;;;7.37;66.97;99856.81;5054059;28;20059;-62
2022/11/05 07:47:46;;;;;;;160.07;13.07;;;;;;;7.37;68.13;99853.34;5054507;28;20060;-60
2022/11/05 07:50:14;;;;;;;148.75;13.82;;;;;;;7.40;67.34;99850.59;5054039;28;20059;-60
2022/11/05 07:52:41;;;;;;;127.90;11.82;;;;;;;7.41;67.44;99862.78;5036613;28;20136;-59
2022/11/05 07:55:08;;;;;;;188.57;13.18;;;;;;;7.40;67.34;99864.53;5053883;28;20049;-60
2022/11/05 07:57:45;;;;;;;142.52;13.68;;;;;;;7.39;68.46;99864.59;5054255;28;20466;-62
2022/11/05 08:00:15;;;;;;;129.30;12.57;;;;;;;7.41;67.48;99858.38;5036537;28;20104;-64
2022/11/05 08:02:42;;;;;;;197.05;14.90;;;;;;;7.44;67.49;99862.63;5036368;28;20088;-59
2022/11/05 08:05:09;;;;;;;89.03;10.55;;;;;;;7.46;67.60;99862.56;5053981;28;20049;-63
2022/11/05 08:07:36;;;;;;;105.45;10.68;;;;;;;7.46;67.48;99867.81;5053689;28;20142;-54
2022/11/05 08:10:03;;;;;;;78.72;10.05;;;;;;;7.47;67.83;99865.13;5054134;28;20041;-54
2022/11/05 08:12:31;;;;;;;129.40;12.43;;;;;;;7.49;68.21;99859.81;5036161;28;20057;-61
2022/11/05 08:14:57;;;;;;;179.80;14.45;;;;;;;7.52;67.79;99865.78;5036033;28;20053;-60
2022/11/05 08:17:24;;;;;;;85.38;11.43;;;;;;;7.54;67.69;99857.84;5053285;28;20045;-60
2022/11/05 08:19:51;;;;;;;158.88;13.50;;;;;;;7.55;67.71;99859.56;5054045;28;20041;-58
2022/11/05 08:22:17;;;;;;;96.30;10.68;;;;;;;7.58;68.04;99867.28;5053467;28;20059;-57
2022/11/05 08:24:44;;;;;;;72.00;9.65;;;;;;;7.62;67.80;99870.66;5053768;28;20053;-57
2022/11/05 08:27:10;;;;;;;153.73;13.85;;;;;;;7.63;67.94;99867.94;5053390;28;20107;-61
2022/11/05 08:29:37;;;;;;;28.35;10.00;;;;;;;7.68;67.92;99870.38;5054045;28;20041;-60
2022/11/05 08:32:03;;;;;;;82.95;12.50;;;;;;;7.69;68.12;99874.69;5035600;28;20564;-60
2022/11/05 08:34:30;;;;;;;21.48;10.52;;;;;;;7.72;67.93;99864.09;5053782;28;20070;-58
2022/11/05 08:36:59;;;;;;;33.53;10.70;;;;;;;7.75;68.42;99878.81;5053259;28;20060;-63
2022/11/05 08:39:26;;;;;;;12.32;9.90;;;;;;;7.77;68.21;99875.22;5053375;28;20574;-60
2022/11/05 08:41:52;;;;;;;41.75;11.02;;;;;;;7.82;68.00;99881.09;5053481;28;20045;-58
2022/11/05 08:44:19;;;;;;;20.88;9.48;;;;;;;7.85;68.24;99887.97;5052974;28;20041;-61
2022/11/05 08:46:46;;;;;;;12.88;9.57;;;;;;;7.91;68.33;99885.09;5052918;28;20049;-60
2022/11/05 08:49:12;;;;;;;21.67;9.50;;;;;;;7.95;68.32;99894.53;5053046;28;20041;-56
2022/11/05 08:51:39;;;;;;;24.02;11.38;;;;;;;8.00;68.16;99889.06;5053431;28;20055;-57
2022/11/05 08:54:06;;;;;;;19.45;10.90;;;;;;;8.03;68.19;99891.56;5052718;28;20044;-60
2022/11/05 08:56:32;;;;;;;14.25;9.65;;;;;;;8.06;68.33;99887.94;5052859;28;20056;-66
2022/11/05 08:58:59;;;;;;;12.77;9.20;;;;;;;8.12;68.26;99890.31;5052785;28;20052;-60
2022/11/05 09:01:26;;;;;;;15.60;9.82;;;;;;;8.15;67.87;99890.16;5053245;28;20044;-62
2022/11/05 09:03:53;;;;;;;11.48;9.18;;;;;;;8.18;68.17;99886.53;5052756;28;20099;-60
2022/11/05 09:06:19;;;;;;;17.45;10.13;;;;;;;8.21;68.05;99891.66;5052863;28;20056;-55
2022/11/05 09:08:46;;;;;;;12.15;9.88;;;;;;;8.25;68.04;99887.13;5052672;28;20052;-54
2022/11/05 09:11:12;;;;;;;10.82;9.30;;;;;;;8.28;68.19;99887.84;5052917;28;20059;-60
2022/11/05 09:13:39;;;;;;;14.45;10.43;;;;;;;8.31;68.29;99885.09;5052774;28;20053;-59
2022/11/05 09:16:12;;;;;;;13.43;9.25;;;;;;;8.34;68.00;99891.97;5052568;28;20131;-60
2022/11/05 09:18:38;;;;;;;;;;;;;;;8.38;69.20;99892.66;5053267;28;20076;-59
2022/11/05 09:21:05;;;;;;;13.88;9.63;;;;;;;8.45;67.59;99889.69;5052502;28;20015;-60
2022/11/05 09:23:32;;;;;;;14.82;9.93;;;;;;;8.48;67.76;99905.28;5052806;28;20053;-58
2022/11/05 09:25:58;;;;;;;13.55;9.93;;;;;;;8.53;68.08;99909.50;5052201;28;20052;-61
2022/11/05 09:28:25;;;;;;;12.35;9.95;;;;;;;8.58;67.87;99912.78;5052386;28;20507;-59
2022/11/05 09:30:52;;;;;;;14.23;9.90;;;;;;;8.61;68.38;99904.75;5052542;28;20045;-62
2022/11/05 09:33:21;;;;;;;13.32;10.50;;;;;;;8.66;68.58;99904.53;5052648;28;20048;-61
2022/11/05 09:35:48;;;;;;;13.50;10.10;;;;;;;8.72;68.12;99907.72;5052089;28;20080;-61
2022/11/05 09:38:15;;;;;;;18.13;10.82;;;;;;;8.78;68.30;99906.59;5052204;28;20603;-59
2022/11/05 09:41:05;;;;;;;14.70;10.32;;;;;;;8.82;68.93;99908.16;5051962;28;20059;-56
2022/11/05 09:43:50;;;;;;;10.68;9.15;;;;;;;8.90;68.96;99912.19;5034535;28;20472;-60
2022/11/05 09:46:22;;;;;;;12.65;10.07;;;;;;;8.96;68.42;99917.13;5051882;28;20099;-60
2022/11/05 09:48:53;;;;;;;12.10;9.50;;;;;;;9.02;68.83;99916.84;5052060;28;20484;-62
2022/11/05 09:53:48;;;;;;;14.23;9.45;;;;;;;9.16;68.44;99920.59;4996520;23;20052;-60
2022/11/05 09:56:28;;;;;;;18.33;10.10;;;;;;;9.19;69.61;99921.28;4992357;28;20060;-61
2022/11/05 09:59:01;;;;;;;11.93;8.75;;;;;;;9.30;68.97;99922.56;4992571;28;20081;-60
2022/11/05 10:01:32;;;;;;;11.43;9.00;;;;;;;9.37;68.79;99919.53;4991456;28;20082;-60
2022/11/05 10:04:06;;;;;;;11.25;8.82;;;;;;;9.46;68.70;99920.84;4992810;28;20089;-62
2022/11/05 10:06:33;;;;;;;11.48;8.90;;;;;;;9.57;68.60;99920.31;4991357;28;20574;-62
2022/11/05 10:09:09;;;;;;;13.18;9.15;;;;;;;9.65;68.96;99918.16;4991411;28;20071;-61
2022/11/05 10:11:43;;;;;;;11.18;8.40;;;;;;;9.77;68.79;99918.47;4992204;28;20108;-61
2022/11/05 10:14:19;;;;;;;11.30;8.60;;;;;;;9.89;69.19;99920.47;5012728;28;20641;-62
2022/11/05 10:16:59;;;;;;;11.07;8.80;;;;;;;10.01;69.09;99924.22;5011869;28;20164;-61
2022/11/05 10:19:49;;;;;;;11.30;8.77;;;;;;;10.17;69.16;99926.06;4994667;28;20104;-59
2022/11/05 10:22:17;;;;;;;9.80;8.30;;;;;;;10.34;68.80;99932.19;4998869;28;20138;-59
2022/11/05 10:24:49;;;;;;;13.88;9.60;;;;;;;10.46;68.62;99926.31;5011892;28;20613;-60
2022/11/05 10:27:22;;;;;;;14.63;8.05;;;;;;;10.59;68.70;99933.56;5011543;28;20089;-60
2022/11/05 10:29:49;;;;;;;10.02;8.73;;;;;;;10.73;68.48;99933.63;5011999;28;20049;-59
2022/11/05 10:32:32;;;;;;;12.10;8.23;;;;;;;10.86;68.56;99935.59;5011939;28;20054;-60
2022/11/05 10:35:01;;;;;;;10.35;8.02;;;;;;;11.03;68.39;99932.03;5011590;28;20095;-59
2022/11/05 10:37:29;;;;;;;10.00;7.72;;;;;;;11.20;68.40;99933.72;5011531;28;20100;-61
2022/11/05 10:39:56;;;;;;;9.60;7.25;;;;;;;11.34;68.20;99933.75;5011370;28;20057;-59
2022/11/05 10:42:35;;;;;;;13.77;8.40;;;;;;;11.47;67.86;99933.91;5010496;28;20049;-60
2022/11/05 10:45:17;;;;;;;9.38;7.53;;;;;;;11.65;67.77;99927.63;5011322;28;20096;-62
2022/11/05 10:48:02;;;;;;;11.85;7.68;;;;;;;11.84;67.91;99933.53;5011855;28;20540;-60
2022/11/05 10:50:29;;;;;;;10.95;8.02;;;;;;;12.06;68.93;99931.41;5011448;28;20108;-60
2022/11/05 10:53:19;;;;;;;10.68;7.70;;;;;;;12.30;68.46;99937.00;5011598;28;20049;-61
2022/11/05 10:55:49;;;;;;;9.68;7.95;;;;;;;12.63;69.26;99927.91;5011345;28;20108;-61
2022/11/05 10:58:15;;;;;;;9.60;7.85;;;;;;;12.93;68.24;99930.50;5011468;28;20137;-59
2022/11/05 11:00:44;;;;;;;10.82;7.82;;;;;;;13.16;67.24;99931.69;5011321;28;20049;-59
2022/11/05 11:03:32;;;;;;;9.80;8.20;;;;;;;13.36;65.24;99935.66;4993940;28;20046;-60
2022/11/05 11:06:36;;;;;;;9.55;7.75;;;;;;;13.60;65.29;99929.69;5011113;28;20112;-60
2022/11/05 11:09:06;;;;;;;8.02;6.60;;;;;;;13.92;66.04;99929.34;5011399;28;20140;-60
2022/11/05 11:11:39;;;;;;;7.60;6.78;;;;;;;14.24;66.71;99928.03;5011201;28;20046;-60
2022/11/05 11:14:19;;;;;;;8.63;7.32;;;;;;;14.66;65.38;99925.09;5011338;28;20465;-60
2022/11/05 11:16:50;;;;;;;8.60;6.30;;;;;;;15.22;68.73;99928.25;5011715;28;20268;-61
2022/11/05 11:19:28;;;;;;;9.02;5.10;;;;;;;15.85;65.23;99929.78;5015345;28;20077;-60
2022/11/05 11:22:04;;;;;;;5.63;4.97;;;;;;;16.53;63.41;99927.16;5013923;28;20054;-59
2022/11/05 11:24:44;;;;;;;6.05;4.82;;;;;;;17.21;62.60;99921.84;5014014;28;20096;-60
2022/11/05 11:27:15;;;;;;;7.57;5.05;;;;;;;17.93;63.52;99925.59;5014982;28;20050;-61
2022/11/05 11:29:46;;;;;;;6.38;4.47;;;;;;;18.62;61.80;99928.59;5015334;28;20081;-61
2022/11/05 11:32:18;;;;;;;6.80;4.35;;;;;;;19.28;59.76;99925.50;5014879;28;20050;-60
2022/11/05 11:34:50;;;;;;;6.20;4.05;;;;;;;19.84;57.80;99923.06;5030310;28;20046;-61
2022/11/05 11:37:26;;;;;;;4.88;4.07;;;;;;;20.37;55.08;99912.78;5014630;28;20497;-61
2022/11/05 11:40:03;;;;;;;5.07;4.18;;;;;;;20.85;52.05;99919.84;5015068;28;20052;-59
2022/11/05 11:42:36;;;;;;;6.60;4.22;;;;;;;21.15;50.48;99918.66;5013499;28;20061;-60
2022/11/05 11:45:13;;;;;;;5.95;4.25;;;;;;;21.41;51.77;99917.91;5014886;28;20077;-61
2022/11/05 11:47:43;;;;;;;5.78;3.80;;;;;;;21.68;50.45;99923.31;5013543;28;20049;-61
2022/11/05 11:50:41;;;;;;;5.20;3.70;;;;;;;21.96;49.92;99926.72;5015218;28;20054;-60
2022/11/05 11:53:20;;;;;;;5.80;3.83;;;;;;;22.21;47.43;99918.78;4997117;28;20050;-60
2022/11/05 11:56:02;;;;;;;5.75;3.80;;;;;;;22.28;46.55;99920.84;5014397;28;20057;-61
2022/11/05 11:58:59;;;;;;;4.70;3.08;;;;;;;22.25;45.62;99912.09;5014439;28;20081;-60
2022/11/05 12:01:29;;;;;;;6.35;2.92;;;;;;;22.25;46.68;99912.09;5006880;28;20054;-61
2022/11/05 12:04:12;;;;;;;5.85;3.53;;;;;;;22.31;47.88;99920.53;5014262;28;20042;-61
2022/11/05 12:06:50;;;;;;;5.93;3.72;;;;;;;22.33;45.01;99915.81;5014455;28;20049;-60
2022/11/05 12:09:20;;;;;;;4.40;3.13;;;;;;;22.34;44.97;99914.81;5014253;28;20054;-61
2022/11/05 12:12:01;;;;;;;6.60;2.92;;;;;;;22.26;45.09;99916.47;5014366;28;20056;-60
2022/11/05 12:14:59;;;;;;;4.15;2.85;;;;;;;22.12;44.89;99914.38;4996616;28;20076;-62
2022/11/05 12:17:31;;;;;;;4.45;2.90;;;;;;;21.91;44.84;99915.63;4996924;28;20050;-60
2022/11/05 12:20:13;;;;;;;4.22;2.75;;;;;;;21.74;45.51;99910.16;5012946;28;20119;-63
2022/11/05 12:22:58;;;;;;;4.85;2.50;;;;;;;21.46;44.92;99910.22;5014198;28;20542;-60
2022/11/05 12:25:36;;;;;;;5.70;3.05;;;;;;;21.34;44.87;99906.13;5014077;28;20061;-60
2022/11/05 12:28:27;;;;;;;5.03;2.95;;;;;;;21.17;44.47;99910.50;5012657;28;20048;-60
2022/11/05 12:31:06;;;;;;;5.40;2.78;;;;;;;21.04;45.47;99911.72;5014067;28;20057;-61
2022/11/05 12:33:56;;;;;;;4.88;2.40;;;;;;;20.71;44.62;99919.38;5014058;28;20042;-61
2022/11/05 12:37:02;;;;;;;5.30;2.58;;;;;;;20.37;44.99;99912.78;5013986;28;20053;-60
2022/11/05 12:39:56;;;;;;;4.40;2.67;;;;;;;20.01;45.38;99917.97;4985634;28;20053;-60
2022/11/05 12:42:29;;;;;;;4.50;2.75;;;;;;;19.70;44.20;99910.97;5014022;28;20100;-60